Time;durP1;ratioP1;P1;durP2;ratioP2;P2;SDS_P1;SDS_P2;PMS_P1;PMS_P2;Temp;Humidity;BMP_temperature;BMP_pressure;BME280_temperature;BME280_humidity;BME280_pressure;Samples;Min_cycle;Max_cycle;Signal;HPM_P1;HPM_P2
2023/06/08 00:01:53;;;;;;;;;;;21.00;54.80;;;;;;6293244;28;19908;-71
2023/06/08 00:04:54;;;;;;;;;;;21.00;54.80;;;;;;6292928;28;19924;-71
2023/06/08 00:07:56;;;;;;;;;;;21.00;54.80;;;;;;6293157;28;19915;-71
2023/06/08 00:10:57;;;;;;;;;;;21.00;54.80;;;;;;6292857;28;20137;-71
2023/06/08 00:13:57;;;;;;;;;;;21.00;54.90;;;;;;6292223;28;19962;-70
2023/06/08 00:17:02;;;;;;;;;;;21.00;54.90;;;;;;6292615;28;19915;-71
2023/06/08 00:20:08;;;;;;;;;;;21.00;54.90;;;;;;6293317;28;19909;-71
2023/06/08 00:23:09;;;;;;;;;;;21.00;55.00;;;;;;6293440;28;20003;-71
2023/06/08 00:26:09;;;;;;;;;;;21.00;55.00;;;;;;6292326;28;20410;-71
2023/06/08 00:29:10;;;;;;;;;;;21.00;55.00;;;;;;6292376;28;19931;-71
2023/06/08 00:32:10;;;;;;;;;;;20.90;54.90;;;;;;6292721;28;20337;-71
2023/06/08 00:35:11;;;;;;;;;;;20.90;55.00;;;;;;6292755;28;20418;-71
2023/06/08 00:38:11;;;;;;;;;;;21.00;55.10;;;;;;6292286;28;19908;-71
2023/06/08 00:41:12;;;;;;;;;;;20.90;55.00;;;;;;6292523;28;19908;-71
2023/06/08 00:44:13;;;;;;;;;;;20.90;55.00;;;;;;6292821;28;20011;-71
2023/06/08 00:47:13;;;;;;;;;;;20.90;55.10;;;;;;6292443;28;20371;-71
2023/06/08 00:50:16;;;;;;;;;;;21.00;55.10;;;;;;6292100;28;19921;-71
2023/06/08 00:53:16;;;;;;;;;;;20.90;55.10;;;;;;6292471;28;19916;-71
2023/06/08 00:56:18;;;;;;;;;;;20.90;55.10;;;;;;6292098;28;19913;-71
2023/06/08 00:59:18;;;;;;;;;;;20.90;55.10;;;;;;6296960;28;20441;-71
2023/06/08 01:02:19;;;;;;;;;;;20.90;55.10;;;;;;6296626;28;19982;-70
2023/06/08 01:05:19;;;;;;;;;;;20.90;55.10;;;;;;6296895;28;20420;-70
2023/06/08 01:08:25;;;;;;;;;;;20.90;55.20;;;;;;6296121;28;19919;-71
2023/06/08 01:11:37;;;;;;;;;;;20.90;55.20;;;;;;6296442;28;19924;-71
2023/06/08 01:14:47;;;;;;;;;;;20.90;55.30;;;;;;6296499;28;19924;-71
2023/06/08 01:17:52;;;;;;;;;;;20.90;55.20;;;;;;6296488;28;19913;-71
2023/06/08 01:21:07;;;;;;;;;;;20.90;55.20;;;;;;6296602;28;19916;-71
2023/06/08 01:24:13;;;;;;;;;;;20.90;55.30;;;;;;6295852;28;19909;-71
2023/06/08 01:27:14;;;;;;;;;;;20.90;55.30;;;;;;6296565;28;20007;-71
2023/06/08 01:30:14;;;;;;;;;;;20.90;55.30;;;;;;6296059;28;19912;-71
2023/06/08 01:33:16;;;;;;;;;;;20.90;55.30;;;;;;6296353;28;19924;-71
2023/06/08 01:36:20;;;;;;;;;;;20.90;55.30;;;;;;6296017;28;20341;-71
2023/06/08 01:39:39;;;;;;;;;;;20.90;55.40;;;;;;6296217;28;20370;-71
2023/06/08 01:42:42;;;;;;;;;;;20.90;55.40;;;;;;6296112;28;19951;-71
2023/06/08 01:45:45;;;;;;;;;;;20.90;55.40;;;;;;6295993;28;19919;-71
2023/06/08 01:48:47;;;;;;;;;;;20.90;55.50;;;;;;6295696;28;19916;-71
2023/06/08 01:51:47;;;;;;;;;;;20.90;55.40;;;;;;6295361;28;19912;-70
2023/06/08 01:54:47;;;;;;;;;;;20.90;55.50;;;;;;6295495;28;19991;-71
2023/06/08 01:57:48;;;;;;;;;;;20.90;55.50;;;;;;6295231;28;19913;-71
2023/06/08 02:00:49;;;;;;;;;;;20.90;55.50;;;;;;6296078;28;20013;-71
2023/06/08 02:03:49;;;;;;;;;;;20.90;55.50;;;;;;6293148;28;19939;-71
2023/06/08 02:06:50;;;;;;;;;;;20.90;55.50;;;;;;6294962;28;19912;-71
2023/06/08 02:09:51;;;;;;;;;;;20.90;55.50;;;;;;6294720;28;19999;-71
2023/06/08 02:12:51;;;;;;;;;;;20.90;55.50;;;;;;6295199;28;19913;-71
2023/06/08 02:15:52;;;;;;;;;;;20.90;55.60;;;;;;6295242;28;19909;-70
2023/06/08 02:18:52;;;;;;;;;;;20.90;55.60;;;;;;6295025;28;19920;-71
2023/06/08 02:21:54;;;;;;;;;;;20.90;55.60;;;;;;6294719;28;20306;-71
2023/06/08 02:24:54;;;;;;;;;;;20.90;55.60;;;;;;6295181;28;20359;-71
2023/06/08 02:27:55;;;;;;;;;;;20.90;55.60;;;;;;6294396;28;20073;-71
2023/06/08 02:30:55;;;;;;;;;;;20.90;55.60;;;;;;6294890;28;20288;-71
2023/06/08 02:33:56;;;;;;;;;;;20.90;55.60;;;;;;6294461;28;19916;-71
2023/06/08 02:36:57;;;;;;;;;;;20.90;55.70;;;;;;6294715;28;19912;-71
2023/06/08 02:39:58;;;;;;;;;;;20.90;55.60;;;;;;6293158;28;19908;-71
2023/06/08 02:42:58;;;;;;;;;;;20.90;55.70;;;;;;6294314;28;19999;-70
2023/06/08 02:45:59;;;;;;;;;;;20.90;55.70;;;;;;6294506;28;19919;-70
2023/06/08 02:49:00;;;;;;;;;;;20.90;55.70;;;;;;6294417;28;20379;-70
2023/06/08 02:52:00;;;;;;;;;;;20.90;55.70;;;;;;6297000;28;20272;-70
2023/06/08 02:55:01;;;;;;;;;;;20.90;55.70;;;;;;6294739;28;19915;-70
2023/06/08 02:58:03;;;;;;;;;;;20.90;55.70;;;;;;6288377;28;19909;-71
2023/06/08 03:01:04;;;;;;;;;;;20.90;55.80;;;;;;6269419;28;19912;-71
2023/06/08 03:04:05;;;;;;;;;;;20.90;55.80;;;;;;6293371;28;20314;-70
2023/06/08 03:07:09;;;;;;;;;;;20.90;55.80;;;;;;6291642;28;19913;-71
2023/06/08 03:10:10;;;;;;;;;;;20.80;55.70;;;;;;6293959;28;20378;-71
2023/06/08 03:13:11;;;;;;;;;;;20.90;55.80;;;;;;6293268;28;19973;-71
2023/06/08 03:16:12;;;;;;;;;;;20.80;55.80;;;;;;6293959;28;20367;-71
2023/06/08 03:19:13;;;;;;;;;;;20.80;55.70;;;;;;6293397;28;19913;-71
2023/06/08 03:22:14;;;;;;;;;;;20.80;55.80;;;;;;6293205;28;20324;-71
2023/06/08 03:25:15;;;;;;;;;;;20.80;55.80;;;;;;6293648;28;19908;-71
2023/06/08 03:28:18;;;;;;;;;;;20.90;55.90;;;;;;6293392;28;20003;-71
2023/06/08 03:31:20;;;;;;;;;;;20.80;55.80;;;;;;6293137;28;19909;-71
2023/06/08 03:34:23;;;;;;;;;;;20.80;55.80;;;;;;6293310;28;20003;-71
2023/06/08 03:37:23;;;;;;;;;;;20.90;55.90;;;;;;6293660;28;19935;-71
2023/06/08 03:40:24;;;;;;;;;;;20.90;55.90;;;;;;6293204;28;19952;-71
2023/06/08 03:43:25;;;;;;;;;;;20.80;55.90;;;;;;6292974;28;19920;-71
2023/06/08 03:46:25;;;;;;;;;;;20.80;55.90;;;;;;6293133;28;20312;-71
2023/06/08 03:49:26;;;;;;;;;;;20.80;55.90;;;;;;6293432;28;19921;-71
2023/06/08 03:52:26;;;;;;;;;;;20.90;56.00;;;;;;6292964;28;20328;-71
2023/06/08 03:55:27;;;;;;;;;;;20.80;55.90;;;;;;6293496;28;20725;-71
2023/06/08 03:58:28;;;;;;;;;;;20.80;55.90;;;;;;6293141;28;19909;-71
2023/06/08 04:01:30;;;;;;;;;;;20.80;55.90;;;;;;6292577;28;20007;-71
2023/06/08 04:04:30;;;;;;;;;;;20.80;56.00;;;;;;6292934;28;20015;-71
2023/06/08 04:07:32;;;;;;;;;;;20.80;56.00;;;;;;6293213;28;20638;-71
2023/06/08 04:10:33;;;;;;;;;;;20.90;56.00;;;;;;6292896;28;20426;-71
2023/06/08 04:13:36;;;;;;;;;;;20.80;56.00;;;;;;6292575;28;19919;-71
2023/06/08 04:16:39;;;;;;;;;;;20.80;56.00;;;;;;6293087;28;19919;-71
2023/06/08 04:19:39;;;;;;;;;;;20.80;56.00;;;;;;6292298;28;19920;-71
2023/06/08 04:22:40;;;;;;;;;;;20.90;56.10;;;;;;6292678;28;20383;-70
2023/06/08 04:25:41;;;;;;;;;;;20.80;56.00;;;;;;6293136;28;19958;-71
2023/06/08 04:28:41;;;;;;;;;;;20.80;56.00;;;;;;6292876;28;20271;-71
2023/06/08 04:31:42;;;;;;;;;;;20.80;56.10;;;;;;6295068;28;20200;-71
2023/06/08 04:34:42;;;;;;;;;;;20.80;56.00;;;;;;6297382;28;20006;-71
2023/06/08 04:37:43;;;;;;;;;;;20.80;56.10;;;;;;6297652;28;19909;-71
2023/06/08 04:40:48;;;;;;;;;;;20.80;56.10;;;;;;6296185;28;20347;-70
2023/06/08 04:43:49;;;;;;;;;;;20.80;56.10;;;;;;6297312;28;19917;-71
2023/06/08 04:46:49;;;;;;;;;;;20.80;56.10;;;;;;6297432;28;19909;-71
2023/06/08 04:49:51;;;;;;;;;;;20.80;56.10;;;;;;6297269;28;19927;-71
2023/06/08 04:52:55;;;;;;;;;;;20.80;56.10;;;;;;6293814;28;19913;-71
2023/06/08 04:55:59;;;;;;;;;;;20.80;56.20;;;;;;6296508;28;19916;-71
2023/06/08 04:59:00;;;;;;;;;;;20.80;56.20;;;;;;6297155;28;19912;-71
2023/06/08 05:02:01;;;;;;;;;;;20.80;56.10;;;;;;6287334;28;19913;-71
2023/06/08 05:05:03;;;;;;;;;;;20.80;56.10;;;;;;6286872;28;19987;-71
2023/06/08 05:08:03;;;;;;;;;;;20.80;56.20;;;;;;6296815;28;19909;-70
2023/06/08 05:11:04;;;;;;;;;;;20.80;56.90;;;;;;6296235;28;19920;-70
2023/06/08 05:14:04;;;;;;;;;;;20.80;56.20;;;;;;6296578;28;19915;-71
2023/06/08 05:17:05;;;;;;;;;;;20.80;56.20;;;;;;6296722;28;19908;-71
2023/06/08 05:20:06;;;;;;;;;;;20.80;56.20;;;;;;6296398;28;20409;-71
2023/06/08 05:23:06;;;;;;;;;;;20.80;56.20;;;;;;6280344;28;19924;-71
2023/06/08 05:26:07;;;;;;;;;;;20.80;56.30;;;;;;6299654;28;19908;-71
2023/06/08 05:29:07;;;;;;;;;;;20.80;56.20;;;;;;6290409;28;19956;-71
2023/06/08 05:32:08;;;;;;;;;;;20.80;56.30;;;;;;6270768;28;20193;-71
2023/06/08 05:35:09;;;;;;;;;;;20.80;56.30;;;;;;6280354;28;20008;-70
2023/06/08 05:38:09;;;;;;;;;;;20.80;56.30;;;;;;6300341;28;20308;-71
2023/06/08 05:41:10;;;;;;;;;;;20.80;56.30;;;;;;6299822;28;19954;-71
2023/06/08 05:44:10;;;;;;;;;;;20.80;56.30;;;;;;6293807;28;19916;-71
2023/06/08 05:47:11;;;;;;;;;;;20.80;56.30;;;;;;6295087;28;19912;-71
2023/06/08 05:50:11;;;;;;;;;;;20.80;56.30;;;;;;6307703;28;19916;-71
2023/06/08 05:53:12;;;;;;;;;;;20.80;56.30;;;;;;6294648;28;19992;-71
2023/06/08 05:56:13;;;;;;;;;;;20.80;56.30;;;;;;6277338;28;20289;-71
2023/06/08 05:59:13;;;;;;;;;;;20.80;56.30;;;;;;6281792;28;19963;-71
2023/06/08 06:02:14;;;;;;;;;;;20.80;56.30;;;;;;6302547;28;20285;-71
2023/06/08 06:05:15;;;;;;;;;;;20.80;56.40;;;;;;6291515;28;19918;-71
2023/06/08 06:08:15;;;;;;;;;;;20.80;56.40;;;;;;6281438;28;19916;-70
2023/06/08 06:11:16;;;;;;;;;;;20.80;56.40;;;;;;6279507;28;19928;-71
2023/06/08 06:14:16;;;;;;;;;;;20.80;56.40;;;;;;6283733;28;19999;-71
2023/06/08 06:17:17;;;;;;;;;;;20.80;56.40;;;;;;6288597;28;19912;-70
2023/06/08 06:20:17;;;;;;;;;;;20.90;57.00;;;;;;6288788;28;20020;-72
2023/06/08 06:23:18;;;;;;;;;;;21.00;56.80;;;;;;6274490;28;19945;-72
2023/06/08 06:26:18;;;;;;;;;;;21.10;56.80;;;;;;6295419;28;20037;-72
2023/06/08 06:29:19;;;;;;;;;;;21.10;56.30;;;;;;6309743;28;19916;-72
2023/06/08 06:32:20;;;;;;;;;;;21.00;56.40;;;;;;6273250;28;20383;-72
2023/06/08 06:35:20;;;;;;;;;;;21.00;56.50;;;;;;6302172;28;19962;-72
2023/06/08 06:38:21;;;;;;;;;;;20.90;56.50;;;;;;6295654;28;19944;-72
2023/06/08 06:41:21;;;;;;;;;;;20.90;56.60;;;;;;6282523;28;19999;-72
2023/06/08 06:44:22;;;;;;;;;;;21.00;56.70;;;;;;6270867;28;19923;-71
2023/06/08 06:47:22;;;;;;;;;;;20.90;56.60;;;;;;6297472;28;20286;-72
2023/06/08 06:50:23;;;;;;;;;;;20.90;56.60;;;;;;6293251;28;20287;-71
2023/06/08 06:53:23;;;;;;;;;;;21.00;56.60;;;;;;6272454;28;19909;-72
2023/06/08 06:56:24;;;;;;;;;;;21.00;56.50;;;;;;6308383;28;19908;-70
2023/06/08 06:59:26;;;;;;;;;;;21.00;56.40;;;;;;6296462;28;19909;-71
2023/06/08 07:02:28;;;;;;;;;;;21.10;56.70;;;;;;6276372;28;20298;-70
2023/06/08 07:05:28;;;;;;;;;;;21.20;56.40;;;;;;6300803;28;19908;-69
2023/06/08 07:08:29;;;;;;;;;;;21.20;56.40;;;;;;6297075;28;19973;-69
2023/06/08 07:11:29;;;;;;;;;;;21.30;56.60;;;;;;6291600;28;19960;-70
2023/06/08 07:14:30;;;;;;;;;;;21.30;56.70;;;;;;6302401;28;19915;-69
2023/06/08 07:17:30;;;;;;;;;;;21.30;56.80;;;;;;6303067;28;19947;-71
2023/06/08 07:20:31;;;;;;;;;;;21.40;57.00;;;;;;6309572;28;19908;-71
2023/06/08 07:23:31;;;;;;;;;;;21.30;56.80;;;;;;6296700;28;19995;-71
2023/06/08 07:26:32;;;;;;;;;;;21.20;56.70;;;;;;6286896;28;19909;-72
2023/06/08 07:29:33;;;;;;;;;;;21.20;56.90;;;;;;6278446;28;19938;-72
2023/06/08 07:32:33;;;;;;;;;;;21.10;56.90;;;;;;6280269;28;19948;-71
2023/06/08 07:35:34;;;;;;;;;;;21.10;56.90;;;;;;6281600;28;19958;-72
2023/06/08 07:38:34;;;;;;;;;;;21.10;56.90;;;;;;6294447;28;20435;-72
2023/06/08 07:41:35;;;;;;;;;;;21.10;56.90;;;;;;6307642;28;19965;-71
2023/06/08 07:44:36;;;;;;;;;;;21.00;56.90;;;;;;6295978;28;19958;-72
2023/06/08 07:47:36;;;;;;;;;;;21.00;56.90;;;;;;6282205;28;20387;-71
2023/06/08 07:50:37;;;;;;;;;;;21.00;57.00;;;;;;6279751;28;19924;-72
2023/06/08 07:53:38;;;;;;;;;;;21.00;57.00;;;;;;6279441;28;19999;-71
2023/06/08 07:56:39;;;;;;;;;;;21.00;56.90;;;;;;6307039;28;19912;-72
2023/06/08 07:59:39;;;;;;;;;;;21.10;57.00;;;;;;6296450;28;19908;-72
2023/06/08 08:02:41;;;;;;;;;;;21.10;57.10;;;;;;6282442;28;19970;-72
2023/06/08 08:05:41;;;;;;;;;;;21.10;57.10;;;;;;6277906;28;19912;-72
2023/06/08 08:08:41;;;;;;;;;;;21.00;57.00;;;;;;6272277;28;20355;-71
2023/06/08 08:11:42;;;;;;;;;;;21.00;57.00;;;;;;6290504;28;19920;-72
2023/06/08 08:14:42;;;;;;;;;;;21.00;57.00;;;;;;6271129;28;20007;-71
2023/06/08 08:17:43;;;;;;;;;;;21.00;57.00;;;;;;6305003;28;19908;-72
2023/06/08 08:20:43;;;;;;;;;;;21.00;57.00;;;;;;6295145;28;20389;-71
2023/06/08 08:23:45;;;;;;;;;;;21.00;57.00;;;;;;6276721;28;19916;-72
2023/06/08 08:26:46;;;;;;;;;;;21.00;57.00;;;;;;6281850;28;19916;-71
2023/06/08 08:29:46;;;;;;;;;;;21.00;57.00;;;;;;6270931;28;19944;-71
2023/06/08 08:32:47;;;;;;;;;;;21.00;57.00;;;;;;6281797;28;19917;-71
2023/06/08 08:35:47;;;;;;;;;;;21.00;57.00;;;;;;6274372;28;19931;-71
2023/06/08 08:38:48;;;;;;;;;;;21.00;57.10;;;;;;6295732;28;19912;-72
2023/06/08 08:41:51;;;;;;;;;;;21.00;57.10;;;;;;6305618;28;19912;-71
2023/06/08 08:44:53;;;;;;;;;;;21.00;57.10;;;;;;6295430;28;19944;-72
2023/06/08 08:47:55;;;;;;;;;;;21.00;57.10;;;;;;6286494;28;20007;-71
2023/06/08 08:50:59;;;;;;;;;;;21.00;57.10;;;;;;6272788;28;19920;-72
2023/06/08 08:54:03;;;;;;;;;;;21.00;57.10;;;;;;6278013;28;19909;-72
2023/06/08 08:57:03;;;;;;;;;;;21.00;57.10;;;;;;6293543;28;19912;-72
2023/06/08 09:00:09;;;;;;;;;;;21.00;57.10;;;;;;6295466;28;20394;-72
2023/06/08 09:03:10;;;;;;;;;;;21.00;57.10;;;;;;6286008;28;19923;-72
2023/06/08 09:06:10;;;;;;;;;;;21.00;57.10;;;;;;6271697;28;19912;-71
2023/06/08 09:09:11;;;;;;;;;;;21.00;57.10;;;;;;6279078;28;19956;-71
2023/06/08 09:12:11;;;;;;;;;;;21.00;57.10;;;;;;6289346;28;20022;-71
2023/06/08 09:15:13;;;;;;;;;;;21.00;57.20;;;;;;6271049;28;20379;-71
2023/06/08 09:18:15;;;;;;;;;;;21.00;57.20;;;;;;6300988;28;20061;-71
2023/06/08 09:21:23;;;;;;;;;;;20.90;57.10;;;;;;6276669;28;20309;-71
2023/06/08 09:24:23;;;;;;;;;;;20.90;57.10;;;;;;6298988;28;19909;-72
2023/06/08 09:27:26;;;;;;;;;;;21.00;57.20;;;;;;6315573;28;19915;-71
2023/06/08 09:30:27;;;;;;;;;;;21.00;57.20;;;;;;6298810;28;19916;-71
2023/06/08 09:33:29;;;;;;;;;;;20.90;57.10;;;;;;6292222;28;19966;-71
2023/06/08 09:36:29;;;;;;;;;;;20.90;57.10;;;;;;6279140;28;19912;-71
2023/06/08 09:39:37;;;;;;;;;;;21.00;57.20;;;;;;6285406;28;19909;-71
2023/06/08 09:42:42;;;;;;;;;;;20.90;57.10;;;;;;6323829;28;20358;-71
2023/06/08 09:45:47;;;;;;;;;;;21.00;57.30;;;;;;6299835;28;19943;-71
2023/06/08 09:48:53;;;;;;;;;;;21.00;57.30;;;;;;6291149;28;20382;-73
2023/06/08 09:51:54;;;;;;;;;;;21.00;57.30;;;;;;6275769;28;19913;-72
2023/06/08 09:54:55;;;;;;;;;;;20.90;57.20;;;;;;6307720;28;19913;-72
2023/06/08 09:57:56;;;;;;;;;;;20.90;57.20;;;;;;6297707;28;19999;-72
2023/06/08 10:01:02;;;;;;;;;;;20.90;57.20;;;;;;6274669;28;19916;-72
2023/06/08 10:04:08;;;;;;;;;;;20.90;57.20;;;;;;6283520;28;20004;-72
2023/06/08 10:07:17;;;;;;;;;;;20.90;57.20;;;;;;6276553;28;20248;-72
2023/06/08 10:10:20;;;;;;;;;;;20.90;57.20;;;;;;6305848;28;20298;-72
2023/06/08 10:13:21;;;;;;;;;;;20.90;57.20;;;;;;6295803;28;20003;-72
2023/06/08 10:16:22;;;;;;;;;;;20.90;57.20;;;;;;6297829;28;19910;-71
2023/06/08 10:19:23;;;;;;;;;;;20.90;57.20;;;;;;6307854;28;19958;-72
2023/06/08 10:22:23;;;;;;;;;;;20.90;57.20;;;;;;6298859;28;19909;-72
2023/06/08 10:25:28;;;;;;;;;;;20.90;57.20;;;;;;6296750;28;20351;-72
2023/06/08 10:28:28;;;;;;;;;;;20.90;57.20;;;;;;6322039;28;19919;-71
2023/06/08 10:31:33;;;;;;;;;;;20.90;57.20;;;;;;6297878;28;19960;-72
2023/06/08 10:34:40;;;;;;;;;;;20.90;57.20;;;;;;6288975;28;19915;-71
2023/06/08 10:37:44;;;;;;;;;;;20.90;57.30;;;;;;6287158;28;19914;-72
2023/06/08 10:40:45;;;;;;;;;;;20.90;57.20;;;;;;6305461;28;20015;-72
2023/06/08 10:43:46;;;;;;;;;;;20.90;57.30;;;;;;6296490;28;19935;-72
2023/06/08 10:46:53;;;;;;;;;;;20.90;57.30;;;;;;6272454;28;19916;-72
2023/06/08 10:49:56;;;;;;;;;;;20.90;57.30;;;;;;6299186;28;19913;-72
2023/06/08 10:52:58;;;;;;;;;;;20.90;57.30;;;;;;6296270;28;19923;-72
2023/06/08 10:55:58;;;;;;;;;;;20.90;57.30;;;;;;6280369;28;20009;-72
2023/06/08 10:58:59;;;;;;;;;;;20.90;57.30;;;;;;6280748;28;20284;-72
2023/06/08 11:02:00;;;;;;;;;;;20.90;57.30;;;;;;6272153;28;19909;-72
2023/06/08 11:05:01;;;;;;;;;;;20.90;57.30;;;;;;6280878;28;19974;-72
2023/06/08 11:08:02;;;;;;;;;;;20.90;57.30;;;;;;6273023;28;19909;-72
2023/06/08 11:11:03;;;;;;;;;;;20.90;57.30;;;;;;6292056;28;19955;-72
2023/06/08 11:14:04;;;;;;;;;;;20.90;57.30;;;;;;6283488;28;20363;-72
2023/06/08 11:17:05;;;;;;;;;;;20.90;57.30;;;;;;6301239;28;19912;-72
2023/06/08 11:20:05;;;;;;;;;;;20.90;57.30;;;;;;6308697;28;19908;-72
2023/06/08 11:23:06;;;;;;;;;;;20.90;57.30;;;;;;6320779;28;19908;-71
2023/06/08 11:26:11;;;;;;;;;;;20.90;57.30;;;;;;6296138;28;20282;-73
2023/06/08 11:29:12;;;;;;;;;;;20.90;57.30;;;;;;6295640;28;19916;-72
2023/06/08 11:32:14;;;;;;;;;;;20.90;57.30;;;;;;6274248;28;20727;-72
2023/06/08 11:35:15;;;;;;;;;;;20.90;57.30;;;;;;6292779;28;19909;-71
2023/06/08 11:38:16;;;;;;;;;;;20.90;57.30;;;;;;6296228;28;19908;-72
2023/06/08 11:41:16;;;;;;;;;;;20.90;57.30;;;;;;6303200;28;19958;-72
2023/06/08 11:44:17;;;;;;;;;;;20.90;57.30;;;;;;6295166;28;20291;-72
2023/06/08 11:47:18;;;;;;;;;;;20.90;57.40;;;;;;6275212;28;20279;-72
2023/06/08 11:50:19;;;;;;;;;;;20.90;57.40;;;;;;6291849;28;19917;-72
2023/06/08 11:53:23;;;;;;;;;;;20.90;57.50;;;;;;6294821;28;19934;-72
2023/06/08 11:56:23;;;;;;;;;;;20.90;57.40;;;;;;6283505;28;19909;-72
2023/06/08 11:59:24;;;;;;;;;;;20.90;57.40;;;;;;6273495;28;19970;-72
2023/06/08 12:02:25;;;;;;;;;;;20.90;57.40;;;;;;6274965;28;20613;-72
2023/06/08 12:05:32;;;;;;;;;;;20.90;57.40;;;;;;6290417;28;19957;-72
2023/06/08 12:08:33;;;;;;;;;;;20.90;57.40;;;;;;6294994;28;19935;-72
2023/06/08 12:11:34;;;;;;;;;;;20.90;57.40;;;;;;6290824;28;20252;-72
2023/06/08 12:14:35;;;;;;;;;;;20.90;57.40;;;;;;6297488;28;20018;-72
2023/06/08 12:17:36;;;;;;;;;;;20.90;57.40;;;;;;6301226;28;19912;-72
2023/06/08 12:20:37;;;;;;;;;;;20.90;57.40;;;;;;6292905;28;19909;-72
2023/06/08 12:23:37;;;;;;;;;;;20.90;57.40;;;;;;6284592;28;19932;-72
2023/06/08 12:26:38;;;;;;;;;;;20.90;57.40;;;;;;6284994;28;19909;-72
2023/06/08 12:29:41;;;;;;;;;;;20.90;57.40;;;;;;6269881;28;19975;-72
2023/06/08 12:32:42;;;;;;;;;;;20.90;57.40;;;;;;6276842;28;20008;-72
2023/06/08 12:35:45;;;;;;;;;;;20.90;57.40;;;;;;6286067;28;19961;-72
2023/06/08 12:38:45;;;;;;;;;;;20.90;57.40;;;;;;6294257;28;19915;-72
2023/06/08 12:41:46;;;;;;;;;;;20.90;57.40;;;;;;6285857;28;20356;-72
2023/06/08 12:44:47;;;;;;;;;;;20.90;57.50;;;;;;6268436;28;19916;-72
2023/06/08 12:47:48;;;;;;;;;;;20.80;57.30;;;;;;6297501;28;20101;-72
2023/06/08 12:50:48;;;;;;;;;;;20.90;57.40;;;;;;6294242;28;19912;-72
2023/06/08 12:53:49;;;;;;;;;;;20.90;57.40;;;;;;6271538;28;20043;-72
2023/06/08 12:56:49;;;;;;;;;;;20.80;57.30;;;;;;6297008;28;19934;-72
2023/06/08 12:59:50;;;;;;;;;;;20.90;57.40;;;;;;6299069;28;20323;-72
2023/06/08 13:02:51;;;;;;;;;;;20.90;57.50;;;;;;6283346;28;19916;-72
2023/06/08 13:05:52;;;;;;;;;;;20.90;57.50;;;;;;6285578;28;19909;-72
2023/06/08 13:08:52;;;;;;;;;;;20.90;57.40;;;;;;6301259;28;19920;-71
2023/06/08 13:11:53;;;;;;;;;;;20.90;57.50;;;;;;6293304;28;20348;-72
2023/06/08 13:14:54;;;;;;;;;;;20.90;57.50;;;;;;6284291;28;20375;-72
2023/06/08 13:17:56;;;;;;;;;;;20.90;57.50;;;;;;6307380;28;19913;-73
2023/06/08 13:20:56;;;;;;;;;;;20.90;57.50;;;;;;6298932;28;19912;-72
2023/06/08 13:24:01;;;;;;;;;;;20.80;57.40;;;;;;6298310;28;19919;-72
2023/06/08 13:27:01;;;;;;;;;;;20.90;57.50;;;;;;6307347;28;19912;-72
2023/06/08 13:30:02;;;;;;;;;;;20.90;57.50;;;;;;6298912;28;19920;-72
2023/06/08 13:33:02;;;;;;;;;;;20.90;57.50;;;;;;6286242;28;19915;-72
2023/06/08 13:36:03;;;;;;;;;;;20.90;57.50;;;;;;6274055;28;20415;-72
2023/06/08 13:39:04;;;;;;;;;;;20.90;57.50;;;;;;6298628;28;19908;-72
2023/06/08 13:42:04;;;;;;;;;;;20.90;57.50;;;;;;6295275;28;19917;-72
2023/06/08 13:45:10;;;;;;;;;;;20.90;57.50;;;;;;6273445;28;20264;-72
2023/06/08 13:48:10;;;;;;;;;;;20.90;57.60;;;;;;6299078;28;19908;-72
2023/06/08 13:51:11;;;;;;;;;;;20.90;58.20;;;;;;6297939;28;20318;-73
2023/06/08 13:54:13;;;;;;;;;;;20.90;57.50;;;;;;6278568;28;19920;-72
2023/06/08 13:57:14;;;;;;;;;;;20.90;57.50;;;;;;6288502;28;19914;-72
2023/06/08 14:00:14;;;;;;;;;;;20.90;57.60;;;;;;6298062;28;19909;-73
2023/06/08 14:03:15;;;;;;;;;;;20.90;57.60;;;;;;6287374;28;19920;-72
2023/06/08 14:06:16;;;;;;;;;;;20.90;57.60;;;;;;6273181;28;19978;-72
2023/06/08 14:09:16;;;;;;;;;;;20.90;57.60;;;;;;6304789;28;19917;-73
2023/06/08 14:12:17;;;;;;;;;;;20.90;57.60;;;;;;6283838;28;19982;-72
2023/06/08 14:15:18;;;;;;;;;;;20.90;57.60;;;;;;6272667;28;19945;-72
2023/06/08 14:18:18;;;;;;;;;;;20.80;57.50;;;;;;6281167;28;20281;-72
2023/06/08 14:21:19;;;;;;;;;;;20.90;57.60;;;;;;6272976;28;19909;-72
2023/06/08 14:24:19;;;;;;;;;;;20.90;57.60;;;;;;6303923;28;19916;-72
2023/06/08 14:27:20;;;;;;;;;;;20.90;57.60;;;;;;6297016;28;19915;-72
2023/06/08 14:30:21;;;;;;;;;;;20.90;57.70;;;;;;6273361;28;20227;-72
2023/06/08 14:33:21;;;;;;;;;;;20.90;57.60;;;;;;6280136;28;19908;-72
2023/06/08 14:36:23;;;;;;;;;;;20.90;57.60;;;;;;6275730;28;20740;-71
2023/06/08 14:39:23;;;;;;;;;;;20.80;57.50;;;;;;6304912;28;19970;-72
2023/06/08 14:42:24;;;;;;;;;;;20.90;57.60;;;;;;6296468;28;19953;-72
2023/06/08 14:45:24;;;;;;;;;;;20.90;57.70;;;;;;6274751;28;19959;-72
2023/06/08 14:48:25;;;;;;;;;;;20.90;57.60;;;;;;6280400;28;20437;-72
2023/06/08 14:51:26;;;;;;;;;;;20.90;57.70;;;;;;6272038;28;19917;-72
2023/06/08 14:54:26;;;;;;;;;;;20.90;57.60;;;;;;6290856;28;20366;-72
2023/06/08 14:57:27;;;;;;;;;;;20.90;57.70;;;;;;6296594;28;20014;-71
2023/06/08 15:00:27;;;;;;;;;;;20.80;58.30;;;;;;6276324;28;19919;-72
2023/06/08 15:03:28;;;;;;;;;;;20.90;57.70;;;;;;6282448;28;19960;-72
2023/06/08 15:06:28;;;;;;;;;;;20.90;57.70;;;;;;6296133;28;20651;-72
2023/06/08 15:09:29;;;;;;;;;;;20.90;57.70;;;;;;6304357;28;19920;-72
2023/06/08 15:12:32;;;;;;;;;;;20.80;57.60;;;;;;6274466;28;20201;-72
2023/06/08 15:15:32;;;;;;;;;;;20.80;57.60;;;;;;6275380;28;19909;-72
2023/06/08 15:18:32;;;;;;;;;;;20.90;57.70;;;;;;6277237;28;19913;-72
2023/06/08 15:21:33;;;;;;;;;;;20.90;57.70;;;;;;6270797;28;20302;-76
2023/06/08 15:24:34;;;;;;;;;;;20.90;57.70;;;;;;6292979;28;19944;-72
2023/06/08 15:27:34;;;;;;;;;;;20.90;57.70;;;;;;6313457;28;19919;-72
2023/06/08 15:30:35;;;;;;;;;;;20.90;57.70;;;;;;6303156;28;19920;-71
2023/06/08 15:33:35;;;;;;;;;;;20.90;57.70;;;;;;6295241;28;19943;-72
2023/06/08 15:36:36;;;;;;;;;;;20.80;57.60;;;;;;6276337;28;19912;-72
2023/06/08 15:39:37;;;;;;;;;;;20.90;57.80;;;;;;6301439;28;20471;-72
2023/06/08 15:42:37;;;;;;;;;;;20.80;57.70;;;;;;6295727;28;19962;-72
2023/06/08 15:45:37;;;;;;;;;;;20.90;57.80;;;;;;6279639;28;19916;-72
2023/06/08 15:48:38;;;;;;;;;;;20.90;57.80;;;;;;6291435;28;19924;-72
2023/06/08 15:51:42;;;;;;;;;;;20.90;57.80;;;;;;6291076;28;19962;-72
2023/06/08 15:54:42;;;;;;;;;;;20.80;57.70;;;;;;6291349;28;19919;-72
2023/06/08 15:57:43;;;;;;;;;;;20.90;57.80;;;;;;6294343;28;20363;-72
2023/06/08 16:00:43;;;;;;;;;;;20.80;57.70;;;;;;6299789;28;20363;-73
2023/06/08 16:03:44;;;;;;;;;;;20.80;57.70;;;;;;6292943;28;20021;-72
2023/06/08 16:06:45;;;;;;;;;;;20.90;57.80;;;;;;6281709;28;19912;-72
2023/06/08 16:09:46;;;;;;;;;;;20.80;57.70;;;;;;6286754;28;19956;-72
2023/06/08 16:12:46;;;;;;;;;;;20.90;57.80;;;;;;6268951;28;19917;-72
2023/06/08 16:15:47;;;;;;;;;;;20.90;57.80;;;;;;6273151;28;20004;-72
2023/06/08 16:18:47;;;;;;;;;;;20.90;57.80;;;;;;6268878;28;19917;-72
2023/06/08 16:21:48;;;;;;;;;;;20.80;57.80;;;;;;6270851;28;19932;-72
2023/06/08 16:24:48;;;;;;;;;;;20.90;57.90;;;;;;6284862;28;19913;-72
2023/06/08 16:27:49;;;;;;;;;;;20.90;57.80;;;;;;6288850;28;19909;-72
2023/06/08 16:30:49;;;;;;;;;;;20.80;57.80;;;;;;6285674;28;20367;-72
2023/06/08 16:33:50;;;;;;;;;;;20.90;57.90;;;;;;6271656;28;19909;-72
2023/06/08 16:36:50;;;;;;;;;;;20.90;57.90;;;;;;6299802;28;20325;-72
2023/06/08 16:39:51;;;;;;;;;;;20.90;57.90;;;;;;6294990;28;20713;-72
2023/06/08 16:42:51;;;;;;;;;;;20.90;57.90;;;;;;6270909;28;19970;-72
2023/06/08 16:45:52;;;;;;;;;;;20.90;57.90;;;;;;6288280;28;19912;-72
2023/06/08 16:48:52;;;;;;;;;;;20.90;57.90;;;;;;6294453;28;19924;-72
2023/06/08 16:51:53;;;;;;;;;;;20.90;57.90;;;;;;6278521;28;20007;-72
2023/06/08 16:54:54;;;;;;;;;;;20.90;57.90;;;;;;6280976;28;20601;-72
2023/06/08 16:57:54;;;;;;;;;;;20.80;57.80;;;;;;6296536;28;19912;-72
2023/06/08 17:00:55;;;;;;;;;;;20.90;57.90;;;;;;6287270;28;20460;-72
2023/06/08 17:03:56;;;;;;;;;;;20.80;57.80;;;;;;6297947;28;19934;-72
2023/06/08 17:06:57;;;;;;;;;;;20.90;57.90;;;;;;6299355;28;20219;-72
2023/06/08 17:09:58;;;;;;;;;;;20.90;57.90;;;;;;6295853;28;19916;-73
2023/06/08 17:12:58;;;;;;;;;;;20.80;57.90;;;;;;6295097;28;19915;-72
2023/06/08 17:15:59;;;;;;;;;;;20.90;57.90;;;;;;6300392;28;19908;-72
2023/06/08 17:18:59;;;;;;;;;;;20.80;57.80;;;;;;6317531;28;19908;-72
2023/06/08 17:22:00;;;;;;;;;;;20.90;57.90;;;;;;6299796;28;19938;-72
2023/06/08 17:25:00;;;;;;;;;;;20.80;57.80;;;;;;6294312;28;19920;-72
2023/06/08 17:28:01;;;;;;;;;;;20.90;57.90;;;;;;6312900;28;19912;-72
2023/06/08 17:31:02;;;;;;;;;;;20.90;57.90;;;;;;6311327;28;19920;-72
2023/06/08 17:34:02;;;;;;;;;;;20.90;58.00;;;;;;6291107;28;19965;-71